Huvudsida
METAR-TAF:

METAR-TAF

Flygplatser :

Åre Östersund Airport

Östersund-Frösön, Sverige

latitud: 63-11N, longitud: 014-30E, höjd: 376 m

Aktuellt väderrapport

Denna rapport gjordes för 39 minuter sedan, klockan 16:50 UTC
Vind 8 kt från ost
Temperatur -9°C
Fuktighet 85%
Tryck 985 hPa
Sikt: 2500 m
snö

METAR: ESNZ 161650Z 08008KT 2500 SN VV007 M09/M11 Q0985

Tid: 18:29 (17:29 UTC)

Väderprognos

Denna rapport gjordes för 2 timmar och 1 minuter sedan, klockan 15:28 UTC
Prognos gäller från 16 kl. 15 UTC till 16 kl. 24 UTC
Vind 12 kt från ost/sydost
Sikt: 1200 m
på en höjd av 600 ft
snö
Temporärt
från 16 kl. 15 UTC till 16 kl. 24 UTC
Sikt: 4000 m
Brutna moln på en höjd av 2000 ft
lätt snö
Blir
från 16 kl. 21 UTC till 16 kl. 23 UTC
Vind 6 kt från nord/nordost

TAF: ESNZ 161528Z 1615/1624 12012KT 1200 SN VV006 TEMPO 1615/1624 4000 -SN BKN020 BECMG 1621/1623 03006KT

Aktuella väderrapporter och prognoser från 4000 flygplatser (METAR- och TAF-rapporter).

De tillgängliga stationerna syns som gula och röda prickar på kartan.

För musen över prickarna för att se namnen på stationerna.

Klicka sedan för att få väderrapporter och prognoser.

För att ändra kartan: Klicka på de gröna knapparna med ett svart kors på för att zooma in; den gröna knappen med ett streck på för att zooma ut; eller på de gröna pilarna för angränsande kartor.


METAR-TAF: